Windley Key, Florida
Current Conditions -  °F | °C
As of 1:53 PM on Saturday 20 Dec 2014 (Local Time) from KMTH Reporting Station
Scattered Clouds Scattered Clouds  
Wind Chill: 79°   Ceiling: Unl
Heat Index: 81°   Visibility: 10mi
Dew Point: 68°   Wind: 5mph
Humidity: 69%   Direction: NA
Pressure: 30.03"   Gusts: NA
Location:  24.8649°N, 80.7192°W
Report Text: KMTH 201853Z AUTO VRB04KT 10SM SCT029 26/20 A3003 RMK AO2 SLP167 T02610200
Loading
Personal Weather Stations






























Interactive Weather Map New forecast layout! Learn more

10-Day Weather Forecast

Advertisements
Track Severe Weather on mobile